Time;durP1;ratioP1;P1;durP2;ratioP2;P2;SDS_P1;SDS_P2;PMS_P1;PMS_P2;Temp;Humidity;BMP_temperature;BMP_pressure;BME280_temperature;BME280_humidity;BME280_pressure;Samples;Min_cycle;Max_cycle;Signal;HPM_P1;HPM_P2
2021/03/09 00:01:27;;;;;;;1.17;0.60;;;10.30;99.90;;;;;;20479270;28;20778;-73
2021/03/09 00:11:31;;;;;;;0.57;0.57;;;10.30;99.90;;;;;;20445972;28;20221;-72
2021/03/09 00:21:34;;;;;;;13.73;1.73;;;10.20;99.90;;;;;;20509336;28;20590;-72
2021/03/09 00:31:39;;;;;;;3.03;0.83;;;10.40;99.90;;;;;;20527585;28;20193;-73
2021/03/09 00:41:42;;;;;;;0.20;0.10;;;10.30;99.90;;;;;;20492930;28;20788;-73
2021/03/09 00:51:45;;;;;;;0.50;0.37;;;10.30;99.90;;;;;;20500123;28;20193;-72
2021/03/09 01:01:48;;;;;;;0.20;0.10;;;10.20;99.90;;;;;;20493698;28;20239;-72
2021/03/09 01:11:53;;;;;;;0.50;0.50;;;10.10;99.90;;;;;;20504496;28;20244;-73
2021/03/09 01:21:56;;;;;;;0.27;0.23;;;10.10;99.90;;;;;;20479667;28;20225;-73
2021/03/09 01:32:01;;;;;;;1.03;0.43;;;10.20;99.90;;;;;;20456919;28;20196;-73
2021/03/09 01:42:04;;;;;;;2.63;0.77;;;10.20;99.90;;;;;;20529793;28;20231;-72
2021/03/09 01:52:10;;;;;;;9.43;1.23;;;10.30;99.90;;;;;;20528074;28;20196;-74
2021/03/09 02:02:13;;;;;;;0.87;0.23;;;10.20;99.90;;;;;;20529323;28;20243;-74
2021/03/09 02:12:24;;;;;;;0.50;0.40;;;10.30;99.90;;;;;;20529062;28;20614;-73
2021/03/09 02:23:17;;;;;;;0.70;0.70;;;10.30;99.90;;;;;;20528585;28;20715;-74
2021/03/09 02:33:25;;;;;;;0.20;0.20;;;10.20;99.90;;;;;;20494524;28;20212;-72
2021/03/09 02:43:30;;;;;;;0.20;0.10;;;9.90;99.90;;;;;;20531654;28;20231;-72
2021/03/09 02:53:39;;;;;;;0.20;0.13;;;9.90;99.90;;;;;;20539740;28;20188;-71
2021/03/09 03:03:44;;;;;;;0.57;0.30;;;10.00;99.90;;;;;;20539058;28;20231;-71
2021/03/09 03:13:50;;;;;;;0.20;0.10;;;10.00;99.90;;;;;;20538493;28;20196;-72
2021/03/09 03:23:55;;;;;;;0.20;0.10;;;10.10;99.90;;;;;;20538842;28;20235;-72
2021/03/09 03:33:59;;;;;;;0.20;0.10;;;10.00;99.90;;;;;;20554080;28;20192;-72
2021/03/09 03:44:02;;;;;;;0.50;0.50;;;9.90;99.90;;;;;;20536654;28;20312;-72
2021/03/09 03:54:21;;;;;;;0.43;0.43;;;9.90;99.90;;;;;;20536077;28;20192;-71
2021/03/09 04:04:28;;;;;;;3.30;1.07;;;9.90;99.90;;;;;;20537545;28;20427;-72
2021/03/09 04:14:33;;;;;;;1.70;1.60;;;10.00;99.90;;;;;;20533536;28;20502;-72
2021/03/09 04:24:36;;;;;;;0.30;0.23;;;10.00;99.90;;;;;;20535351;28;20363;-72
2021/03/09 04:34:40;;;;;;;0.20;0.20;;;10.00;99.90;;;;;;20533248;28;20196;-72
2021/03/09 04:44:43;;;;;;;0.33;0.33;;;10.10;99.90;;;;;;20533388;28;20232;-71
2021/03/09 04:54:46;;;;;;;0.50;0.30;;;10.10;99.90;;;;;;20532266;28;20188;-71
2021/03/09 05:04:49;;;;;;;0.97;0.60;;;10.10;99.90;;;;;;20590090;23;20349;-68
2021/03/09 05:14:52;;;;;;;3.77;1.37;;;10.20;99.90;;;;;;20611501;28;20183;-69
2021/03/09 05:24:55;;;;;;;0.20;0.10;;;10.40;99.90;;;;;;20611167;28;20905;-67
2021/03/09 05:34:59;;;;;;;0.60;0.43;;;10.30;99.90;;;;;;20609314;28;20382;-67
2021/03/09 05:45:05;;;;;;;0.40;0.40;;;10.10;99.90;;;;;;20609219;28;20222;-68
2021/03/09 05:55:11;;;;;;;0.43;0.43;;;9.90;99.90;;;;;;20609166;28;20204;-67
2021/03/09 06:05:14;;;;;;;0.40;0.40;;;9.90;99.90;;;;;;20608534;28;20239;-69
2021/03/09 06:15:18;;;;;;;0.50;0.50;;;10.00;99.90;;;;;;20606635;28;20538;-68
2021/03/09 06:25:23;;;;;;;0.20;0.10;;;9.80;99.90;;;;;;20624171;28;20238;-67
2021/03/09 06:35:34;;;;;;;0.60;0.60;;;9.70;99.90;;;;;;20621647;28;20199;-68
2021/03/09 06:45:37;;;;;;;0.53;0.50;;;9.80;99.90;;;;;;20602869;28;20226;-68
2021/03/09 06:55:41;;;;;;;0.20;0.20;;;9.90;99.90;;;;;;20620615;28;20192;-69
2021/03/09 07:05:56;;;;;;;0.20;0.20;;;10.20;99.90;;;;;;20632680;28;20233;-70
2021/03/09 07:16:01;;;;;;;1.10;1.07;;;10.50;99.90;;;;;;20634653;28;20198;-69
2021/03/09 07:26:09;;;;;;;1.27;0.90;;;10.50;99.90;;;;;;20614955;28;20623;-70
2021/03/09 07:36:13;;;;;;;1.60;1.20;;;10.60;99.90;;;;;;20615401;28;20198;-69
2021/03/09 07:46:16;;;;;;;0.20;0.20;;;10.60;99.90;;;;;;20617266;28;20238;-67
2021/03/09 07:56:19;;;;;;;1.57;0.93;;;11.10;99.90;;;;;;20617816;28;20202;-68
2021/03/09 08:06:21;;;;;;;0.60;0.50;;;11.50;99.90;;;;;;20615965;28;20239;-69
2021/03/09 08:16:42;;;;;;;0.77;0.63;;;11.60;99.90;;;;;;20617095;28;20199;-69
2021/03/09 08:26:52;;;;;;;0.57;0.57;;;11.30;99.90;;;;;;20534146;28;20226;-69
2021/03/09 08:36:55;;;;;;;0.93;0.80;;;11.80;99.90;;;;;;20582522;28;20207;-69
2021/03/09 08:47:00;;;;;;;0.67;0.67;;;12.10;99.90;;;;;;20611053;28;20230;-68
2021/03/09 08:57:06;;;;;;;0.33;0.33;;;12.20;99.90;;;;;;20611524;28;20207;-68
2021/03/09 09:07:20;;;;;;;3.47;1.57;;;11.80;99.90;;;;;;20612444;28;20255;-68
2021/03/09 09:17:26;;;;;;;1.30;1.30;;;12.30;99.90;;;;;;20610235;28;20209;-70
2021/03/09 09:27:29;;;;;;;0.50;0.33;;;12.70;99.90;;;;;;20593208;28;21057;-69
2021/03/09 09:37:32;;;;;;;1.53;0.50;;;13.20;99.90;;;;;;20625840;28;20649;-77
2021/03/09 09:47:35;;;;;;;0.30;0.30;;;13.50;99.90;;;;;;20659307;28;20227;-75
2021/03/09 09:57:50;;;;;;;2.53;1.43;;;13.70;99.90;;;;;;20631251;28;20560;-78
2021/03/09 10:07:52;;;;;;;1.37;1.27;;;14.00;99.90;;;;;;20628061;28;20324;-75
2021/03/09 10:18:04;;;;;;;0.47;0.47;;;14.40;99.90;;;;;;20626872;28;20708;-76
2021/03/09 10:28:08;;;;;;;0.67;0.67;;;14.60;99.90;;;;;;20624050;28;20612;-76
2021/03/09 10:38:23;;;;;;;0.67;0.67;;;14.90;99.90;;;;;;20625839;28;20203;-78
2021/03/09 10:48:26;;;;;;;1.07;0.97;;;15.60;99.90;;;;;;20626636;28;20666;-80
2021/03/09 10:58:29;;;;;;;0.93;0.90;;;16.00;99.90;;;;;;20627330;28;20196;-76
2021/03/09 11:08:32;;;;;;;0.50;0.43;;;16.80;99.90;;;;;;20624021;28;20282;-75
2021/03/09 11:18:36;;;;;;;1.13;0.87;;;18.00;99.90;;;;;;20620917;28;20568;-77
2021/03/09 11:28:39;;;;;;;3.33;1.13;;;16.30;99.90;;;;;;20623894;28;20238;-75
2021/03/09 11:38:43;;;;;;;0.87;0.83;;;17.70;99.90;;;;;;20620795;28;20341;-79
2021/03/09 11:48:46;;;;;;;1.30;1.23;;;18.70;99.90;;;;;;20620357;28;20227;-80
2021/03/09 11:58:50;;;;;;;0.60;0.53;;;19.20;99.90;;;;;;20600788;28;20285;-77
2021/03/09 12:08:52;;;;;;;5.63;1.93;;;19.30;99.90;;;;;;20618144;28;21097;-79
2021/03/09 12:18:56;;;;;;;2.33;2.13;;;19.10;99.90;;;;;;20620650;28;20270;-74
2021/03/09 12:28:59;;;;;;;0.90;0.57;;;19.70;99.90;;;;;;20546663;28;20232;-76
2021/03/09 12:39:03;;;;;;;6.07;2.50;;;19.70;99.90;;;;;;20534763;28;20200;-76
2021/03/09 12:49:05;;;;;;;1.90;0.93;;;20.30;99.90;;;;;;20531973;28;20228;-73
2021/03/09 12:59:10;;;;;;;1.07;1.00;;;20.10;99.90;;;;;;20534208;28;20223;-72
2021/03/09 13:09:13;;;;;;;2.17;1.87;;;20.70;99.90;;;;;;20558553;28;20239;-77
2021/03/09 13:19:16;;;;;;;5.43;1.87;;;20.40;99.90;;;;;;20610255;28;20226;-70
2021/03/09 13:29:19;;;;;;;1.37;1.27;;;20.60;99.90;;;;;;20607916;28;20219;-70
2021/03/09 13:39:22;;;;;;;3.03;0.70;;;21.60;99.90;;;;;;20606348;28;20278;-71
2021/03/09 13:49:25;;;;;;;1.67;1.13;;;21.80;99.90;;;;;;20630022;28;20227;-69
2021/03/09 13:59:32;;;;;;;1.57;1.47;;;22.30;99.90;;;;;;20610880;28;20211;-70
2021/03/09 14:09:35;;;;;;;1.70;1.17;;;22.20;99.90;;;;;;20608478;28;20227;-72
2021/03/09 14:19:40;;;;;;;3.17;1.87;;;22.00;99.90;;;;;;20607284;28;20199;-70
2021/03/09 14:29:44;;;;;;;1.07;1.07;;;20.20;99.90;;;;;;20609395;28;20227;-70
2021/03/09 14:39:48;;;;;;;1.83;1.00;;;19.40;99.90;;;;;;20613288;28;20256;-71
2021/03/09 14:49:51;;;;;;;1.43;1.27;;;19.40;99.90;;;;;;20638426;28;20242;-71
2021/03/09 14:59:55;;;;;;;0.23;0.23;;;18.40;99.90;;;;;;20620532;28;20237;-70
2021/03/09 15:09:58;;;;;;;3.13;1.13;;;20.40;99.90;;;;;;20621258;28;20790;-70
2021/03/09 15:20:01;;;;;;;2.00;0.90;;;21.60;99.90;;;;;;20595686;28;20196;-69
2021/03/09 15:30:06;;;;;;;0.60;0.60;;;21.30;99.90;;;;;;20541431;28;20228;-70
2021/03/09 15:40:13;;;;;;;2.77;1.73;;;20.60;99.90;;;;;;20537363;28;20686;-73
2021/03/09 15:50:17;;;;;;;5.07;2.03;;;20.70;99.90;;;;;;20536952;28;20461;-70
2021/03/09 16:00:22;;;;;;;6.67;1.47;;;20.30;99.90;;;;;;20534582;28;20228;-72
2021/03/09 16:10:24;;;;;;;3.37;1.30;;;19.90;99.90;;;;;;20571991;28;20752;-71
2021/03/09 16:20:28;;;;;;;3.37;1.57;;;19.40;99.90;;;;;;20613333;28;20558;-70
2021/03/09 16:30:31;;;;;;;0.30;0.30;;;18.10;99.90;;;;;;20615632;28;20346;-70
2021/03/09 16:40:35;;;;;;;1.43;0.80;;;17.30;99.90;;;;;;20611188;28;20676;-72
2021/03/09 16:50:38;;;;;;;0.37;0.37;;;16.30;99.90;;;;;;20612461;28;20324;-70
2021/03/09 17:00:41;;;;;;;0.87;0.80;;;16.70;99.90;;;;;;20609806;28;20235;-71
2021/03/09 17:10:45;;;;;;;1.10;0.97;;;16.20;99.90;;;;;;20611370;28;20696;-72
2021/03/09 17:20:48;;;;;;;0.43;0.43;;;15.40;99.90;;;;;;20609913;28;20210;-73
2021/03/09 17:30:51;;;;;;;1.40;0.47;;;15.00;99.90;;;;;;20610340;28;20708;-70
2021/03/09 17:40:55;;;;;;;2.70;1.67;;;14.70;99.90;;;;;;20607963;28;20488;-72
2021/03/09 17:50:57;;;;;;;2.03;0.70;;;14.60;99.90;;;;;;20609223;28;20637;-74
2021/03/09 18:01:01;;;;;;;0.70;0.70;;;14.60;99.90;;;;;;20608788;28;20235;-73
2021/03/09 18:11:05;;;;;;;0.43;0.43;;;14.30;99.90;;;;;;20605273;28;20235;-72
2021/03/09 18:21:10;;;;;;;1.60;1.07;;;14.10;99.90;;;;;;20620378;28;20738;-75
2021/03/09 18:31:12;;;;;;;0.43;0.43;;;14.00;99.90;;;;;;20570962;28;20681;-73
2021/03/09 18:41:17;;;;;;;0.67;0.67;;;13.80;99.90;;;;;;20621596;28;20211;-71
2021/03/09 18:51:20;;;;;;;2.67;1.37;;;13.70;99.90;;;;;;20623609;28;20250;-73
2021/03/09 19:01:23;;;;;;;0.77;0.77;;;13.40;99.90;;;;;;20619537;28;20224;-72
2021/03/09 19:11:29;;;;;;;1.30;1.17;;;13.30;99.90;;;;;;20619793;28;20231;-73
2021/03/09 19:21:34;;;;;;;3.43;1.07;;;12.80;99.90;;;;;;20618603;28;20215;-74
2021/03/09 19:31:38;;;;;;;3.80;1.43;;;12.60;99.90;;;;;;20616576;28;20689;-74
2021/03/09 19:41:41;;;;;;;0.40;0.40;;;12.40;99.90;;;;;;20616725;28;20238;-72
2021/03/09 19:51:44;;;;;;;0.83;0.83;;;12.00;99.90;;;;;;20619919;28;20250;-73
2021/03/09 20:01:48;;;;;;;0.97;0.97;;;12.00;99.90;;;;;;20597898;28;20227;-72
2021/03/09 20:11:50;;;;;;;7.13;0.73;;;11.50;99.90;;;;;;20616501;28;20238;-73
2021/03/09 20:21:54;;;;;;;0.70;0.70;;;11.40;99.90;;;;;;20612151;28;20551;-74
2021/03/09 20:31:58;;;;;;;0.87;0.60;;;11.50;99.90;;;;;;20597937;28;20521;-73
2021/03/09 20:42:02;;;;;;;0.60;0.60;;;11.50;99.90;;;;;;20612048;28;20199;-74
2021/03/09 20:52:05;;;;;;;1.87;1.77;;;11.50;99.90;;;;;;20612862;28;20391;-73
2021/03/09 21:02:08;;;;;;;2.00;1.63;;;11.60;99.90;;;;;;20612876;28;20566;-74
2021/03/09 21:12:11;;;;;;;1.03;0.63;;;11.60;99.90;;;;;;20614861;28;20242;-75
2021/03/09 21:22:15;;;;;;;3.70;1.80;;;11.70;99.90;;;;;;20610959;28;20240;-74
2021/03/09 21:32:22;;;;;;;3.73;1.20;;;11.90;99.90;;;;;;20611892;28;20721;-76
2021/03/09 21:42:25;;;;;;;1.00;0.90;;;11.80;99.90;;;;;;20610298;28;20208;-75
2021/03/09 21:52:28;;;;;;;1.30;1.20;;;11.80;99.90;;;;;;20610235;28;20200;-73
2021/03/09 22:02:31;;;;;;;1.50;1.30;;;11.80;99.90;;;;;;20609012;28;20215;-75
2021/03/09 22:12:34;;;;;;;0.77;0.77;;;11.70;99.90;;;;;;20616525;28;20259;-73
2021/03/09 22:22:38;;;;;;;1.63;1.23;;;11.70;99.90;;;;;;20624777;28;20199;-76
2021/03/09 22:32:41;;;;;;;1.80;0.80;;;11.50;99.90;;;;;;20612045;28;20677;-73
2021/03/09 22:42:45;;;;;;;1.50;1.30;;;11.50;99.90;;;;;;20606852;28;20203;-73
2021/03/09 22:52:47;;;;;;;0.83;0.83;;;11.40;99.90;;;;;;20609946;28;20424;-73
2021/03/09 23:02:51;;;;;;;1.47;1.37;;;11.20;99.90;;;;;;20613906;28;20250;-74
2021/03/09 23:12:53;;;;;;;3.10;1.83;;;11.00;99.90;;;;;;20632294;28;20681;-75
2021/03/09 23:22:57;;;;;;;0.90;0.67;;;10.90;99.90;;;;;;20614665;28;20615;-73
2021/03/09 23:33:00;;;;;;;3.00;2.50;;;10.60;99.90;;;;;;20615952;28;20210;-73
2021/03/09 23:43:06;;;;;;;4.43;2.23;;;10.50;99.90;;;;;;20611582;28;20311;-73
2021/03/09 23:53:10;;;;;;;0.67;0.63;;;10.30;99.90;;;;;;20653128;28;20204;-73
